sensor_id;sensor_type;location;lat;lon;timestamp;pressure;altitude;pressure_sealevel;temperature;humidity
37778;BME280;23615;51.506;7.678;2023-05-21T00:01:59;100160.19;;;13.28;89.16
37778;BME280;23615;51.506;7.678;2023-05-21T00:04:24;100157.25;;;13.30;88.70
37778;BME280;23615;51.506;7.678;2023-05-21T00:06:50;100150.97;;;13.24;88.46
37778;BME280;23615;51.506;7.678;2023-05-21T00:09:16;100149.94;;;13.14;88.86
37778;BME280;23615;51.506;7.678;2023-05-21T00:11:41;100148.44;;;13.06;89.27
37778;BME280;23615;51.506;7.678;2023-05-21T00:14:06;100145.31;;;12.97;89.08
37778;BME280;23615;51.506;7.678;2023-05-21T00:16:31;100147.31;;;12.90;89.36
37778;BME280;23615;51.506;7.678;2023-05-21T00:18:57;100145.31;;;12.86;89.60
37778;BME280;23615;51.506;7.678;2023-05-21T00:21:22;100141.50;;;12.82;90.11
37778;BME280;23615;51.506;7.678;2023-05-21T00:23:53;100141.72;;;12.80;89.79
37778;BME280;23615;51.506;7.678;2023-05-21T00:26:19;100136.50;;;12.73;89.91
37778;BME280;23615;51.506;7.678;2023-05-21T00:28:45;100132.44;;;12.71;90.02
37778;BME280;23615;51.506;7.678;2023-05-21T00:31:10;100141.72;;;12.68;90.40
37778;BME280;23615;51.506;7.678;2023-05-21T00:33:36;100129.63;;;12.66;90.84
37778;BME280;23615;51.506;7.678;2023-05-21T00:36:01;100128.34;;;12.68;91.03
37778;BME280;23615;51.506;7.678;2023-05-21T00:38:27;100125.44;;;12.70;90.93
37778;BME280;23615;51.506;7.678;2023-05-21T00:40:52;100121.94;;;12.69;90.86
37778;BME280;23615;51.506;7.678;2023-05-21T00:43:18;100117.19;;;12.71;90.60
37778;BME280;23615;51.506;7.678;2023-05-21T00:45:43;100112.63;;;12.72;90.67
37778;BME280;23615;51.506;7.678;2023-05-21T00:48:10;100124.63;;;12.69;90.06
37778;BME280;23615;51.506;7.678;2023-05-21T00:50:36;100116.94;;;12.61;90.55
37778;BME280;23615;51.506;7.678;2023-05-21T00:53:04;100116.03;;;12.56;90.93
37778;BME280;23615;51.506;7.678;2023-05-21T00:55:34;100114.63;;;12.53;91.42
37778;BME280;23615;51.506;7.678;2023-05-21T00:57:59;100121.41;;;12.56;91.43
37778;BME280;23615;51.506;7.678;2023-05-21T01:00:25;100112.28;;;12.57;91.58
37778;BME280;23615;51.506;7.678;2023-05-21T01:02:50;100116.59;;;12.58;91.60
37778;BME280;23615;51.506;7.678;2023-05-21T01:05:16;100111.25;;;12.58;91.30
37778;BME280;23615;51.506;7.678;2023-05-21T01:07:42;100108.56;;;12.58;91.36
37778;BME280;23615;51.506;7.678;2023-05-21T01:10:09;100109.63;;;12.57;91.11
37778;BME280;23615;51.506;7.678;2023-05-21T01:12:37;100102.53;;;12.51;91.02
37778;BME280;23615;51.506;7.678;2023-05-21T01:15:03;100106.25;;;12.50;91.60
37778;BME280;23615;51.506;7.678;2023-05-21T01:17:29;100094.88;;;12.43;91.79
37778;BME280;23615;51.506;7.678;2023-05-21T01:19:59;100103.34;;;12.40;91.98
37778;BME280;23615;51.506;7.678;2023-05-21T01:22:27;100105.19;;;12.39;92.21
37778;BME280;23615;51.506;7.678;2023-05-21T01:24:53;100099.28;;;12.37;92.43
37778;BME280;23615;51.506;7.678;2023-05-21T01:27:19;100099.28;;;12.37;92.96
37778;BME280;23615;51.506;7.678;2023-05-21T01:29:45;100096.84;;;12.35;92.89
37778;BME280;23615;51.506;7.678;2023-05-21T01:32:17;100093.69;;;12.38;93.18
37778;BME280;23615;51.506;7.678;2023-05-21T01:34:58;100091.28;;;12.37;93.26
37778;BME280;23615;51.506;7.678;2023-05-21T01:37:50;100090.69;;;12.35;93.67
37778;BME280;23615;51.506;7.678;2023-05-21T01:40:28;100087.19;;;12.34;93.30
37778;BME280;23615;51.506;7.678;2023-05-21T01:42:56;100086.59;;;12.32;93.67
37778;BME280;23615;51.506;7.678;2023-05-21T01:45:24;100100.78;;;12.33;93.72
37778;BME280;23615;51.506;7.678;2023-05-21T01:47:53;100083.59;;;12.29;94.02
37778;BME280;23615;51.506;7.678;2023-05-21T01:50:22;100086.59;;;12.32;94.21
37778;BME280;23615;51.506;7.678;2023-05-21T01:52:52;100091.63;;;12.29;94.35
37778;BME280;23615;51.506;7.678;2023-05-21T01:55:18;100086.50;;;12.27;94.02
37778;BME280;23615;51.506;7.678;2023-05-21T01:57:48;100074.97;;;12.27;94.25
37778;BME280;23615;51.506;7.678;2023-05-21T02:00:15;100076.34;;;12.29;94.35
37778;BME280;23615;51.506;7.678;2023-05-21T02:02:40;100076.25;;;12.24;94.79
37778;BME280;23615;51.506;7.678;2023-05-21T02:05:06;100069.03;;;12.25;94.74
37778;BME280;23615;51.506;7.678;2023-05-21T02:07:32;100068.69;;;12.21;94.90
37778;BME280;23615;51.506;7.678;2023-05-21T02:09:57;100067.88;;;12.21;94.59
37778;BME280;23615;51.506;7.678;2023-05-21T02:12:23;100067.06;;;12.20;94.81
37778;BME280;23615;51.506;7.678;2023-05-21T02:14:48;100066.00;;;12.21;95.00
37778;BME280;23615;51.506;7.678;2023-05-21T02:17:14;100065.56;;;12.24;94.87
37778;BME280;23615;51.506;7.678;2023-05-21T02:19:41;100068.69;;;12.21;95.38
37778;BME280;23615;51.506;7.678;2023-05-21T02:22:09;100068.13;;;12.19;95.38
37778;BME280;23615;51.506;7.678;2023-05-21T02:24:34;100074.16;;;12.15;95.64
37778;BME280;23615;51.506;7.678;2023-05-21T02:27:00;100073.34;;;12.14;95.01
37778;BME280;23615;51.506;7.678;2023-05-21T02:29:25;100061.59;;;12.15;95.54
37778;BME280;23615;51.506;7.678;2023-05-21T02:31:50;100069.63;;;12.15;95.55
37778;BME280;23615;51.506;7.678;2023-05-21T02:34:16;100066.94;;;12.15;94.93
37778;BME280;23615;51.506;7.678;2023-05-21T02:36:44;100071.25;;;12.16;95.25
37778;BME280;23615;51.506;7.678;2023-05-21T02:39:12;100066.13;;;12.15;95.33
37778;BME280;23615;51.506;7.678;2023-05-21T02:41:37;100066.38;;;12.13;95.05
37778;BME280;23615;51.506;7.678;2023-05-21T02:44:03;100068.00;;;12.14;94.92
37778;BME280;23615;51.506;7.678;2023-05-21T02:46:28;100064.50;;;12.14;95.00
37778;BME280;23615;51.506;7.678;2023-05-21T02:48:53;100060.09;;;12.08;95.21
37778;BME280;23615;51.506;7.678;2023-05-21T02:51:19;100059.50;;;12.06;94.86
37778;BME280;23615;51.506;7.678;2023-05-21T02:53:44;100064.03;;;12.05;94.87
37778;BME280;23615;51.506;7.678;2023-05-21T02:56:09;100062.78;;;12.08;94.89
37778;BME280;23615;51.506;7.678;2023-05-21T02:58:36;100067.75;;;12.04;94.61
37778;BME280;23615;51.506;7.678;2023-05-21T03:01:02;100061.25;;;12.00;94.68
37778;BME280;23615;51.506;7.678;2023-05-21T03:03:27;100060.09;;;11.96;94.56
37778;BME280;23615;51.506;7.678;2023-05-21T03:05:52;100056.81;;;11.94;94.84
37778;BME280;23615;51.506;7.678;2023-05-21T03:08:17;100055.19;;;11.93;94.77
37778;BME280;23615;51.506;7.678;2023-05-21T03:10:43;100062.97;;;11.94;94.53
37778;BME280;23615;51.506;7.678;2023-05-21T03:13:08;100057.31;;;11.91;94.36
37778;BME280;23615;51.506;7.678;2023-05-21T03:15:33;100052.78;;;11.91;93.80
37778;BME280;23615;51.506;7.678;2023-05-21T03:17:59;100063.91;;;11.88;93.94
37778;BME280;23615;51.506;7.678;2023-05-21T03:20:25;100053.91;;;11.84;93.79
37778;BME280;23615;51.506;7.678;2023-05-21T03:22:52;100051.13;;;11.79;93.84
37778;BME280;23615;51.506;7.678;2023-05-21T03:25:18;100057.13;;;11.74;94.06
37778;BME280;23615;51.506;7.678;2023-05-21T03:27:45;100054.69;;;11.73;94.06
37778;BME280;23615;51.506;7.678;2023-05-21T03:30:11;100059.44;;;11.71;94.09
37778;BME280;23615;51.506;7.678;2023-05-21T03:32:36;100054.91;;;11.71;93.98
37778;BME280;23615;51.506;7.678;2023-05-21T03:35:03;100046.31;;;11.69;93.88
37778;BME280;23615;51.506;7.678;2023-05-21T03:37:29;100058.03;;;11.68;94.06
37778;BME280;23615;51.506;7.678;2023-05-21T03:39:54;100055.59;;;11.67;93.91
37778;BME280;23615;51.506;7.678;2023-05-21T03:42:19;100063.84;;;11.65;93.91
37778;BME280;23615;51.506;7.678;2023-05-21T03:44:44;100056.63;;;11.66;93.75
37778;BME280;23615;51.506;7.678;2023-05-21T03:47:10;100062.22;;;11.64;93.80
37778;BME280;23615;51.506;7.678;2023-05-21T03:49:35;100060.59;;;11.63;93.82
37778;BME280;23615;51.506;7.678;2023-05-21T03:52:00;100061.41;;;11.63;93.89
37778;BME280;23615;51.506;7.678;2023-05-21T03:54:25;100065.47;;;11.66;93.94
37778;BME280;23615;51.506;7.678;2023-05-21T03:56:51;100052.00;;;11.61;93.53
37778;BME280;23615;51.506;7.678;2023-05-21T03:59:16;100058.97;;;11.62;94.03
37778;BME280;23615;51.506;7.678;2023-05-21T04:01:41;100060.22;;;11.59;94.44
37778;BME280;23615;51.506;7.678;2023-05-21T04:04:07;100055.25;;;11.63;94.14
37778;BME280;23615;51.506;7.678;2023-05-21T04:06:32;100061.75;;;11.55;94.06
37778;BME280;23615;51.506;7.678;2023-05-21T04:08:58;100062.19;;;11.52;94.23
37778;BME280;23615;51.506;7.678;2023-05-21T04:11:23;100064.63;;;11.54;94.84
37778;BME280;23615;51.506;7.678;2023-05-21T04:13:49;100069.75;;;11.55;94.98
37778;BME280;23615;51.506;7.678;2023-05-21T04:16:14;100065.78;;;11.58;95.15
37778;BME280;23615;51.506;7.678;2023-05-21T04:18:43;100064.66;;;11.66;94.94
37778;BME280;23615;51.506;7.678;2023-05-21T04:21:09;100061.19;;;11.65;94.82
37778;BME280;23615;51.506;7.678;2023-05-21T04:23:35;100064.91;;;11.64;95.47
37778;BME280;23615;51.506;7.678;2023-05-21T04:26:00;100073.47;;;11.66;95.14
37778;BME280;23615;51.506;7.678;2023-05-21T04:28:26;100074.06;;;11.68;95.46
37778;BME280;23615;51.506;7.678;2023-05-21T04:30:52;100073.41;;;11.73;95.01
37778;BME280;23615;51.506;7.678;2023-05-21T04:33:18;100070.28;;;11.76;95.39
37778;BME280;23615;51.506;7.678;2023-05-21T04:35:49;100073.75;;;11.76;95.68
37778;BME280;23615;51.506;7.678;2023-05-21T04:38:14;100076.81;;;11.80;96.20
37778;BME280;23615;51.506;7.678;2023-05-21T04:40:44;100080.19;;;11.87;95.74
37778;BME280;23615;51.506;7.678;2023-05-21T04:43:09;100073.56;;;11.89;96.31
37778;BME280;23615;51.506;7.678;2023-05-21T04:45:35;100078.69;;;11.91;96.18
37778;BME280;23615;51.506;7.678;2023-05-21T04:48:00;100073.13;;;11.92;96.88
37778;BME280;23615;51.506;7.678;2023-05-21T04:50:26;100066.47;;;11.95;96.85
37778;BME280;23615;51.506;7.678;2023-05-21T04:52:54;100070.31;;;11.99;97.01
37778;BME280;23615;51.506;7.678;2023-05-21T04:55:20;100064.50;;;12.02;97.31
37778;BME280;23615;51.506;7.678;2023-05-21T04:57:46;100063.81;;;12.07;97.49
37778;BME280;23615;51.506;7.678;2023-05-21T05:00:12;100064.16;;;12.10;97.33
37778;BME280;23615;51.506;7.678;2023-05-21T05:02:37;100065.09;;;12.16;97.02
37778;BME280;23615;51.506;7.678;2023-05-21T05:05:03;100064.63;;;12.19;97.68
37778;BME280;23615;51.506;7.678;2023-05-21T05:07:28;100059.63;;;12.22;97.65
37778;BME280;23615;51.506;7.678;2023-05-21T05:09:54;100060.78;;;12.26;97.96
37778;BME280;23615;51.506;7.678;2023-05-21T05:12:19;100061.13;;;12.30;97.93
37778;BME280;23615;51.506;7.678;2023-05-21T05:14:44;100061.13;;;12.30;98.55
37778;BME280;23615;51.506;7.678;2023-05-21T05:17:09;100053.56;;;12.38;98.48
37778;BME280;23615;51.506;7.678;2023-05-21T05:19:38;100052.16;;;12.48;98.84
37778;BME280;23615;51.506;7.678;2023-05-21T05:22:04;100050.63;;;12.52;98.69
37778;BME280;23615;51.506;7.678;2023-05-21T05:24:29;100056.56;;;12.54;99.17
37778;BME280;23615;51.506;7.678;2023-05-21T05:26:54;100052.72;;;12.61;99.11
37778;BME280;23615;51.506;7.678;2023-05-21T05:29:19;100042.81;;;12.62;99.34
37778;BME280;23615;51.506;7.678;2023-05-21T05:31:45;100042.09;;;12.66;99.63
37778;BME280;23615;51.506;7.678;2023-05-21T05:34:10;100052.78;;;12.78;99.49
37778;BME280;23615;51.506;7.678;2023-05-21T05:36:35;100053.59;;;12.79;99.38
37778;BME280;23615;51.506;7.678;2023-05-21T05:39:00;100052.91;;;12.83;99.29
37778;BME280;23615;51.506;7.678;2023-05-21T05:41:26;100055.91;;;12.87;99.24
37778;BME280;23615;51.506;7.678;2023-05-21T05:43:51;100061.13;;;12.93;99.66
37778;BME280;23615;51.506;7.678;2023-05-21T05:46:16;100064.75;;;12.87;99.74
37778;BME280;23615;51.506;7.678;2023-05-21T05:48:41;100055.75;;;12.93;99.94
37778;BME280;23615;51.506;7.678;2023-05-21T05:51:07;100063.34;;;12.96;99.85
37778;BME280;23615;51.506;7.678;2023-05-21T05:53:32;100060.75;;;13.01;99.62
37778;BME280;23615;51.506;7.678;2023-05-21T05:55:57;100060.03;;;13.06;99.64
37778;BME280;23615;51.506;7.678;2023-05-21T05:58:23;100059.34;;;13.10;99.34
37778;BME280;23615;51.506;7.678;2023-05-21T06:00:49;100060.63;;;13.20;99.29
37778;BME280;23615;51.506;7.678;2023-05-21T06:03:15;100060.84;;;13.18;99.26
37778;BME280;23615;51.506;7.678;2023-05-21T06:05:40;100055.56;;;13.23;99.30
37778;BME280;23615;51.506;7.678;2023-05-21T06:08:05;100057.63;;;13.33;99.27
37778;BME280;23615;51.506;7.678;2023-05-21T06:10:31;100050.97;;;13.35;99.16
37778;BME280;23615;51.506;7.678;2023-05-21T06:12:56;100061.13;;;13.33;98.67
37778;BME280;23615;51.506;7.678;2023-05-21T06:15:21;100053.16;;;13.38;99.03
37778;BME280;23615;51.506;7.678;2023-05-21T06:17:46;100055.72;;;13.45;98.62
37778;BME280;23615;51.506;7.678;2023-05-21T06:20:12;100062.69;;;13.46;98.54
37778;BME280;23615;51.506;7.678;2023-05-21T06:22:37;100058.81;;;13.54;98.53
37778;BME280;23615;51.506;7.678;2023-05-21T06:25:03;100067.50;;;13.61;97.83
37778;BME280;23615;51.506;7.678;2023-05-21T06:27:28;100068.38;;;13.66;97.96
37778;BME280;23615;51.506;7.678;2023-05-21T06:29:54;100067.66;;;13.71;97.47
37778;BME280;23615;51.506;7.678;2023-05-21T06:32:20;100056.78;;;13.77;97.63
37778;BME280;23615;51.506;7.678;2023-05-21T06:34:45;100063.06;;;13.83;97.34
37778;BME280;23615;51.506;7.678;2023-05-21T06:37:10;100056.06;;;13.82;96.88
37778;BME280;23615;51.506;7.678;2023-05-21T06:39:36;100065.81;;;13.88;96.93
37778;BME280;23615;51.506;7.678;2023-05-21T06:42:01;100061.09;;;13.95;96.71
37778;BME280;23615;51.506;7.678;2023-05-21T06:44:26;100057.09;;;13.98;96.71
37778;BME280;23615;51.506;7.678;2023-05-21T06:46:52;100058.31;;;14.07;96.82
37778;BME280;23615;51.506;7.678;2023-05-21T06:49:17;100050.34;;;14.12;96.63
37778;BME280;23615;51.506;7.678;2023-05-21T06:51:42;100045.53;;;14.14;96.66
37778;BME280;23615;51.506;7.678;2023-05-21T06:54:07;100046.19;;;14.21;95.88
37778;BME280;23615;51.506;7.678;2023-05-21T06:56:32;100046.50;;;14.24;95.92
37778;BME280;23615;51.506;7.678;2023-05-21T06:58:58;100043.09;;;14.29;96.11
37778;BME280;23615;51.506;7.678;2023-05-21T07:01:23;100050.06;;;14.30;95.58
37778;BME280;23615;51.506;7.678;2023-05-21T07:03:48;100053.66;;;14.36;95.63
37778;BME280;23615;51.506;7.678;2023-05-21T07:06:14;100049.75;;;14.43;95.13
37778;BME280;23615;51.506;7.678;2023-05-21T07:08:40;100037.97;;;14.44;95.08
37778;BME280;23615;51.506;7.678;2023-05-21T07:11:06;100043.94;;;14.51;95.18
37778;BME280;23615;51.506;7.678;2023-05-21T07:13:31;100036.22;;;14.55;94.83
37778;BME280;23615;51.506;7.678;2023-05-21T07:15:56;100040.25;;;14.57;94.66
37778;BME280;23615;51.506;7.678;2023-05-21T07:18:22;100033.28;;;14.56;94.38
37778;BME280;23615;51.506;7.678;2023-05-21T07:20:47;100029.22;;;14.54;94.63
37778;BME280;23615;51.506;7.678;2023-05-21T07:23:12;100034.22;;;14.67;94.40
37778;BME280;23615;51.506;7.678;2023-05-21T07:25:37;100031.28;;;14.69;94.41
37778;BME280;23615;51.506;7.678;2023-05-21T07:28:03;100034.09;;;14.79;94.29
37778;BME280;23615;51.506;7.678;2023-05-21T07:30:28;100039.53;;;14.84;93.96
37778;BME280;23615;51.506;7.678;2023-05-21T07:32:53;100036.91;;;14.89;93.78
37778;BME280;23615;51.506;7.678;2023-05-21T07:35:19;100028.88;;;14.94;93.94
37778;BME280;23615;51.506;7.678;2023-05-21T07:37:44;100044.00;;;15.00;93.82
37778;BME280;23615;51.506;7.678;2023-05-21T07:40:11;100049.69;;;15.04;93.39
37778;BME280;23615;51.506;7.678;2023-05-21T07:42:36;100044.63;;;15.07;93.64
37778;BME280;23615;51.506;7.678;2023-05-21T07:45:02;100045.69;;;15.06;93.16
37778;BME280;23615;51.506;7.678;2023-05-21T07:47:27;100048.25;;;15.18;92.99
37778;BME280;23615;51.506;7.678;2023-05-21T07:49:52;100062.78;;;15.22;92.48
37778;BME280;23615;51.506;7.678;2023-05-21T07:52:18;100058.91;;;15.13;92.65
37778;BME280;23615;51.506;7.678;2023-05-21T07:54:43;100060.91;;;15.22;92.68
37778;BME280;23615;51.506;7.678;2023-05-21T07:57:08;100055.88;;;15.31;92.78
37778;BME280;23615;51.506;7.678;2023-05-21T07:59:33;100055.44;;;15.39;92.48
37778;BME280;23615;51.506;7.678;2023-05-21T08:01:59;100051.66;;;15.40;92.63
37778;BME280;23615;51.506;7.678;2023-05-21T08:04:24;100048.84;;;15.52;92.91
37778;BME280;23615;51.506;7.678;2023-05-21T08:06:50;100050.59;;;15.63;92.51
37778;BME280;23615;51.506;7.678;2023-05-21T08:09:15;100047.94;;;15.68;92.17
37778;BME280;23615;51.506;7.678;2023-05-21T08:11:40;100058.53;;;15.80;92.31
37778;BME280;23615;51.506;7.678;2023-05-21T08:14:06;100057.78;;;15.89;92.22
37778;BME280;23615;51.506;7.678;2023-05-21T08:16:31;100056.47;;;15.92;91.89
37778;BME280;23615;51.506;7.678;2023-05-21T08:18:56;100064.56;;;15.97;91.78
37778;BME280;23615;51.506;7.678;2023-05-21T08:21:22;100051.16;;;16.02;91.97
37778;BME280;23615;51.506;7.678;2023-05-21T08:23:47;100051.53;;;16.16;91.77
37778;BME280;23615;51.506;7.678;2023-05-21T08:26:12;100051.59;;;16.31;91.47
37778;BME280;23615;51.506;7.678;2023-05-21T08:28:40;100053.59;;;16.45;91.27
37778;BME280;23615;51.506;7.678;2023-05-21T08:31:06;100058.22;;;16.60;90.89
37778;BME280;23615;51.506;7.678;2023-05-21T08:33:34;100057.25;;;16.76;90.67
37778;BME280;23615;51.506;7.678;2023-05-21T08:36:01;100056.25;;;16.93;90.62
37778;BME280;23615;51.506;7.678;2023-05-21T08:38:26;100053.06;;;17.06;89.44
37778;BME280;23615;51.506;7.678;2023-05-21T08:40:53;100051.72;;;17.13;89.56
37778;BME280;23615;51.506;7.678;2023-05-21T08:43:19;100049.88;;;17.19;89.08
37778;BME280;23615;51.506;7.678;2023-05-21T08:45:52;100054.72;;;17.17;88.16
37778;BME280;23615;51.506;7.678;2023-05-21T08:48:21;100053.91;;;17.32;88.47
37778;BME280;23615;51.506;7.678;2023-05-21T08:50:47;100058.28;;;17.53;88.89
37778;BME280;23615;51.506;7.678;2023-05-21T08:53:13;100059.94;;;17.64;87.94
37778;BME280;23615;51.506;7.678;2023-05-21T08:55:40;100061.28;;;17.67;87.47
37778;BME280;23615;51.506;7.678;2023-05-21T08:58:06;100061.56;;;17.75;86.25
37778;BME280;23615;51.506;7.678;2023-05-21T09:00:32;100054.25;;;17.76;87.54
37778;BME280;23615;51.506;7.678;2023-05-21T09:02:58;100053.75;;;17.84;85.99
37778;BME280;23615;51.506;7.678;2023-05-21T09:05:25;100044.56;;;17.80;86.09
37778;BME280;23615;51.506;7.678;2023-05-21T09:08:13;100042.13;;;17.99;86.29
37778;BME280;23615;51.506;7.678;2023-05-21T09:10:43;100038.88;;;18.12;85.99
37778;BME280;23615;51.506;7.678;2023-05-21T09:13:10;100035.88;;;18.18;86.03
37778;BME280;23615;51.506;7.678;2023-05-21T09:15:35;100033.19;;;18.03;86.39
37778;BME280;23615;51.506;7.678;2023-05-21T09:18:01;100041.03;;;17.94;86.55
37778;BME280;23615;51.506;7.678;2023-05-21T09:20:27;100034.81;;;17.94;87.52
37778;BME280;23615;51.506;7.678;2023-05-21T09:22:53;100036.97;;;18.12;87.39
37778;BME280;23615;51.506;7.678;2023-05-21T09:25:23;100027.75;;;18.23;86.37
37778;BME280;23615;51.506;7.678;2023-05-21T09:27:50;100033.22;;;17.98;87.56
37778;BME280;23615;51.506;7.678;2023-05-21T09:30:16;100034.50;;;18.21;86.89
37778;BME280;23615;51.506;7.678;2023-05-21T09:32:44;100029.91;;;18.21;86.60
37778;BME280;23615;51.506;7.678;2023-05-21T09:35:13;100026.38;;;18.31;86.10
37778;BME280;23615;51.506;7.678;2023-05-21T09:37:40;100023.16;;;18.34;85.25
37778;BME280;23615;51.506;7.678;2023-05-21T09:40:18;100027.19;;;18.31;85.38
37778;BME280;23615;51.506;7.678;2023-05-21T09:42:47;100019.91;;;18.37;85.41
37778;BME280;23615;51.506;7.678;2023-05-21T09:47:46;100025.78;;;18.54;85.48
37778;BME280;23615;51.506;7.678;2023-05-21T09:50:23;100025.50;;;18.66;85.24
37778;BME280;23615;51.506;7.678;2023-05-21T09:52:50;100027.06;;;18.82;85.13
37778;BME280;23615;51.506;7.678;2023-05-21T09:55:17;100023.72;;;18.95;84.16
37778;BME280;23615;51.506;7.678;2023-05-21T09:57:44;100017.72;;;19.03;84.33
37778;BME280;23615;51.506;7.678;2023-05-21T10:00:21;100023.63;;;19.16;83.10
37778;BME280;23615;51.506;7.678;2023-05-21T10:02:48;100016.59;;;19.20;82.55
37778;BME280;23615;51.506;7.678;2023-05-21T10:05:15;100019.44;;;19.33;83.46
37778;BME280;23615;51.506;7.678;2023-05-21T10:07:44;100028.28;;;19.49;83.16
37778;BME280;23615;51.506;7.678;2023-05-21T10:10:13;100034.25;;;19.46;82.99
37778;BME280;23615;51.506;7.678;2023-05-21T10:12:42;100019.63;;;19.52;82.54
37778;BME280;23615;51.506;7.678;2023-05-21T10:15:14;100018.28;;;19.50;82.32
37778;BME280;23615;51.506;7.678;2023-05-21T10:17:42;100015.25;;;19.56;81.48
37778;BME280;23615;51.506;7.678;2023-05-21T10:20:09;100006.09;;;19.52;81.85
37778;BME280;23615;51.506;7.678;2023-05-21T10:22:37;100011.63;;;19.71;82.50
37778;BME280;23615;51.506;7.678;2023-05-21T10:25:04;100011.75;;;19.56;81.68
37778;BME280;23615;51.506;7.678;2023-05-21T10:27:29;100008.78;;;19.57;81.83
37778;BME280;23615;51.506;7.678;2023-05-21T10:29:56;99998.97;;;19.61;81.56
37778;BME280;23615;51.506;7.678;2023-05-21T10:32:24;100003.56;;;19.61;81.63
37778;BME280;23615;51.506;7.678;2023-05-21T10:34:52;100002.22;;;19.63;82.03
37778;BME280;23615;51.506;7.678;2023-05-21T10:37:18;100011.34;;;19.72;82.42
37778;BME280;23615;51.506;7.678;2023-05-21T10:39:44;100001.50;;;19.82;81.93
37778;BME280;23615;51.506;7.678;2023-05-21T10:47:35;99994.94;;;20.16;80.60
37778;BME280;23615;51.506;7.678;2023-05-21T10:50:33;99999.88;;;20.33;80.06
37778;BME280;23615;51.506;7.678;2023-05-21T10:56:03;99998.78;;;20.58;79.95
37778;BME280;23615;51.506;7.678;2023-05-21T11:01:18;99988.94;;;20.67;79.98
37778;BME280;23615;51.506;7.678;2023-05-21T11:03:46;99981.53;;;20.73;79.32
37778;BME280;23615;51.506;7.678;2023-05-21T11:06:21;99983.50;;;20.67;79.11
37778;BME280;23615;51.506;7.678;2023-05-21T11:08:47;99981.91;;;20.66;79.02
37778;BME280;23615;51.506;7.678;2023-05-21T11:11:12;99981.97;;;20.61;78.81
37778;BME280;23615;51.506;7.678;2023-05-21T11:13:46;99980.28;;;20.65;79.15
37778;BME280;23615;51.506;7.678;2023-05-21T11:16:15;99977.75;;;20.74;80.25
37778;BME280;23615;51.506;7.678;2023-05-21T11:21:12;99972.75;;;20.81;80.03
37778;BME280;23615;51.506;7.678;2023-05-21T11:23:50;99972.91;;;20.89;79.53
37778;BME280;23615;51.506;7.678;2023-05-21T11:26:20;99974.72;;;20.94;79.42
37778;BME280;23615;51.506;7.678;2023-05-21T11:28:49;99972.19;;;20.84;78.85
37778;BME280;23615;51.506;7.678;2023-05-21T11:31:22;99980.59;;;20.82;79.09
37778;BME280;23615;51.506;7.678;2023-05-21T11:36:36;99971.38;;;21.02;79.47
37778;BME280;23615;51.506;7.678;2023-05-21T11:39:09;99978.75;;;21.15;79.69
37778;BME280;23615;51.506;7.678;2023-05-21T11:41:56;99966.81;;;21.16;79.25
37778;BME280;23615;51.506;7.678;2023-05-21T11:47:07;99961.78;;;21.61;78.75
37778;BME280;23615;51.506;7.678;2023-05-21T11:49:33;99965.94;;;21.72;78.70
37778;BME280;23615;51.506;7.678;2023-05-21T11:52:00;99965.03;;;21.77;78.60
37778;BME280;23615;51.506;7.678;2023-05-21T11:54:26;99956.75;;;21.68;78.18
37778;BME280;23615;51.506;7.678;2023-05-21T11:56:53;99965.34;;;21.75;78.87
37778;BME280;23615;51.506;7.678;2023-05-21T11:59:19;99965.53;;;21.79;78.18
37778;BME280;23615;51.506;7.678;2023-05-21T12:01:44;99958.72;;;21.81;78.04
37778;BME280;23615;51.506;7.678;2023-05-21T12:04:10;99959.19;;;22.02;77.64
37778;BME280;23615;51.506;7.678;2023-05-21T12:06:37;99957.25;;;22.16;76.98
37778;BME280;23615;51.506;7.678;2023-05-21T12:09:02;99958.56;;;22.32;78.13
37778;BME280;23615;51.506;7.678;2023-05-21T12:11:29;99951.13;;;22.38;77.91
37778;BME280;23615;51.506;7.678;2023-05-21T12:13:54;99947.50;;;22.29;76.72
37778;BME280;23615;51.506;7.678;2023-05-21T12:16:21;99943.66;;;22.16;78.48
37778;BME280;23615;51.506;7.678;2023-05-21T12:18:46;99941.59;;;21.94;77.30
37778;BME280;23615;51.506;7.678;2023-05-21T12:21:12;99950.09;;;21.93;78.61
37778;BME280;23615;51.506;7.678;2023-05-21T12:23:37;99934.06;;;21.91;78.21
37778;BME280;23615;51.506;7.678;2023-05-21T12:26:03;99940.50;;;21.95;77.31
37778;BME280;23615;51.506;7.678;2023-05-21T12:28:28;99945.41;;;21.80;78.06
37778;BME280;23615;51.506;7.678;2023-05-21T12:30:54;99943.75;;;21.97;77.66
37778;BME280;23615;51.506;7.678;2023-05-21T12:33:20;99952.75;;;21.79;78.91
37778;BME280;23615;51.506;7.678;2023-05-21T12:35:46;99947.84;;;21.95;78.53
37778;BME280;23615;51.506;7.678;2023-05-21T12:38:13;99942.91;;;21.97;77.85
37778;BME280;23615;51.506;7.678;2023-05-21T12:40:39;99943.47;;;22.13;78.24
37778;BME280;23615;51.506;7.678;2023-05-21T12:43:05;99941.88;;;22.39;78.66
37778;BME280;23615;51.506;7.678;2023-05-21T12:45:31;99951.69;;;22.62;77.03
37778;BME280;23615;51.506;7.678;2023-05-21T12:48:00;99947.66;;;22.73;76.43
37778;BME280;23615;51.506;7.678;2023-05-21T12:50:25;99944.97;;;22.96;75.43
37778;BME280;23615;51.506;7.678;2023-05-21T12:52:54;99947.22;;;23.16;74.93
37778;BME280;23615;51.506;7.678;2023-05-21T12:55:22;99941.91;;;23.33;73.64
37778;BME280;23615;51.506;7.678;2023-05-21T12:57:48;99937.22;;;23.47;74.12
37778;BME280;23615;51.506;7.678;2023-05-21T13:00:22;99943.41;;;23.62;73.36
37778;BME280;23615;51.506;7.678;2023-05-21T13:02:47;99937.66;;;23.63;73.22
37778;BME280;23615;51.506;7.678;2023-05-21T13:05:16;99943.09;;;23.63;73.39
37778;BME280;23615;51.506;7.678;2023-05-21T13:07:42;99939.41;;;23.68;73.40
37778;BME280;23615;51.506;7.678;2023-05-21T13:10:11;99942.78;;;23.65;72.92
37778;BME280;23615;51.506;7.678;2023-05-21T13:12:36;99942.66;;;23.70;73.33